sensor_id;sensor_type;location;lat;lon;timestamp;P1;durP1;ratioP1;P2;durP2;ratioP2
10341;SDS011;5216;54.602;18.356;2024-02-23T00:01:26;9.43;;;8.50;;
10341;SDS011;5216;54.602;18.356;2024-02-23T00:03:52;10.10;;;9.10;;
10341;SDS011;5216;54.602;18.356;2024-02-23T00:06:19;9.87;;;8.90;;
10341;SDS011;5216;54.602;18.356;2024-02-23T00:08:46;9.43;;;8.53;;
10341;SDS011;5216;54.602;18.356;2024-02-23T00:11:13;10.27;;;9.20;;
10341;SDS011;5216;54.602;18.356;2024-02-23T00:13:39;9.80;;;8.80;;
10341;SDS011;5216;54.602;18.356;2024-02-23T00:16:06;9.43;;;8.53;;
10341;SDS011;5216;54.602;18.356;2024-02-23T00:18:33;10.00;;;9.00;;
10341;SDS011;5216;54.602;18.356;2024-02-23T00:20:59;10.17;;;9.27;;
10341;SDS011;5216;54.602;18.356;2024-02-23T00:23:26;9.73;;;8.77;;
10341;SDS011;5216;54.602;18.356;2024-02-23T00:25:53;9.13;;;8.30;;
10341;SDS011;5216;54.602;18.356;2024-02-23T00:28:19;9.67;;;8.77;;
10341;SDS011;5216;54.602;18.356;2024-02-23T00:30:46;9.20;;;8.30;;
10341;SDS011;5216;54.602;18.356;2024-02-23T00:33:13;10.53;;;9.53;;
10341;SDS011;5216;54.602;18.356;2024-02-23T00:35:40;9.60;;;8.70;;
10341;SDS011;5216;54.602;18.356;2024-02-23T00:38:06;9.53;;;8.70;;
10341;SDS011;5216;54.602;18.356;2024-02-23T00:40:34;9.80;;;8.90;;
10341;SDS011;5216;54.602;18.356;2024-02-23T00:43:00;10.00;;;9.00;;
10341;SDS011;5216;54.602;18.356;2024-02-23T00:45:27;9.53;;;8.53;;
10341;SDS011;5216;54.602;18.356;2024-02-23T00:47:54;9.60;;;8.63;;
10341;SDS011;5216;54.602;18.356;2024-02-23T00:50:21;11.00;;;9.17;;
10341;SDS011;5216;54.602;18.356;2024-02-23T00:52:47;11.20;;;9.73;;
10341;SDS011;5216;54.602;18.356;2024-02-23T00:55:14;11.13;;;9.70;;
10341;SDS011;5216;54.602;18.356;2024-02-23T00:57:41;10.53;;;9.43;;
10341;SDS011;5216;54.602;18.356;2024-02-23T01:00:08;10.00;;;9.00;;
10341;SDS011;5216;54.602;18.356;2024-02-23T01:02:35;11.53;;;10.43;;
10341;SDS011;5216;54.602;18.356;2024-02-23T01:05:04;58.97;;;48.37;;
10341;SDS011;5216;54.602;18.356;2024-02-23T01:07:31;42.27;;;37.73;;
10341;SDS011;5216;54.602;18.356;2024-02-23T01:09:59;25.63;;;22.93;;
10341;SDS011;5216;54.602;18.356;2024-02-23T01:12:26;16.07;;;14.33;;
10341;SDS011;5216;54.602;18.356;2024-02-23T01:14:53;10.73;;;9.63;;
10341;SDS011;5216;54.602;18.356;2024-02-23T01:17:19;10.20;;;9.20;;
10341;SDS011;5216;54.602;18.356;2024-02-23T01:19:46;9.33;;;8.30;;
10341;SDS011;5216;54.602;18.356;2024-02-23T01:22:13;9.20;;;8.23;;
10341;SDS011;5216;54.602;18.356;2024-02-23T01:24:41;8.73;;;7.83;;
10341;SDS011;5216;54.602;18.356;2024-02-23T01:27:08;9.30;;;8.30;;
10341;SDS011;5216;54.602;18.356;2024-02-23T01:29:34;9.20;;;8.30;;
10341;SDS011;5216;54.602;18.356;2024-02-23T01:32:01;8.03;;;7.23;;
10341;SDS011;5216;54.602;18.356;2024-02-23T01:34:28;9.00;;;7.60;;
10341;SDS011;5216;54.602;18.356;2024-02-23T01:36:55;8.40;;;7.60;;
10341;SDS011;5216;54.602;18.356;2024-02-23T01:39:22;8.63;;;7.83;;
10341;SDS011;5216;54.602;18.356;2024-02-23T01:41:49;8.83;;;7.90;;
10341;SDS011;5216;54.602;18.356;2024-02-23T01:44:15;8.93;;;8.03;;
10341;SDS011;5216;54.602;18.356;2024-02-23T01:46:43;8.30;;;7.60;;
10341;SDS011;5216;54.602;18.356;2024-02-23T01:49:11;8.07;;;7.27;;
10341;SDS011;5216;54.602;18.356;2024-02-23T01:51:38;8.30;;;7.43;;
10341;SDS011;5216;54.602;18.356;2024-02-23T01:54:05;8.40;;;7.57;;
10341;SDS011;5216;54.602;18.356;2024-02-23T01:56:33;8.30;;;7.50;;
10341;SDS011;5216;54.602;18.356;2024-02-23T01:59:03;7.87;;;6.80;;
10341;SDS011;5216;54.602;18.356;2024-02-23T02:01:30;8.60;;;7.77;;
10341;SDS011;5216;54.602;18.356;2024-02-23T02:03:58;8.30;;;7.50;;
10341;SDS011;5216;54.602;18.356;2024-02-23T02:06:25;7.70;;;7.00;;
10341;SDS011;5216;54.602;18.356;2024-02-23T02:08:52;8.13;;;7.37;;
10341;SDS011;5216;54.602;18.356;2024-02-23T02:11:20;7.77;;;6.97;;
10341;SDS011;5216;54.602;18.356;2024-02-23T02:13:47;8.10;;;7.30;;
10341;SDS011;5216;54.602;18.356;2024-02-23T02:16:14;8.27;;;7.53;;
10341;SDS011;5216;54.602;18.356;2024-02-23T02:18:40;7.80;;;7.10;;
10341;SDS011;5216;54.602;18.356;2024-02-23T02:21:07;8.03;;;7.27;;
10341;SDS011;5216;54.602;18.356;2024-02-23T02:23:34;7.57;;;6.87;;
10341;SDS011;5216;54.602;18.356;2024-02-23T02:26:00;7.73;;;7.03;;
10341;SDS011;5216;54.602;18.356;2024-02-23T02:28:27;8.47;;;7.70;;
10341;SDS011;5216;54.602;18.356;2024-02-23T02:30:54;7.87;;;7.17;;
10341;SDS011;5216;54.602;18.356;2024-02-23T02:33:21;7.43;;;6.73;;
10341;SDS011;5216;54.602;18.356;2024-02-23T02:35:49;7.50;;;6.80;;
10341;SDS011;5216;54.602;18.356;2024-02-23T02:38:16;7.77;;;7.07;;
10341;SDS011;5216;54.602;18.356;2024-02-23T02:40:43;7.87;;;7.00;;
10341;SDS011;5216;54.602;18.356;2024-02-23T02:43:10;7.50;;;6.70;;
10341;SDS011;5216;54.602;18.356;2024-02-23T02:45:37;7.27;;;6.63;;
10341;SDS011;5216;54.602;18.356;2024-02-23T02:48:04;6.80;;;6.23;;
10341;SDS011;5216;54.602;18.356;2024-02-23T02:50:34;7.00;;;6.30;;
10341;SDS011;5216;54.602;18.356;2024-02-23T02:53:00;6.07;;;5.47;;
10341;SDS011;5216;54.602;18.356;2024-02-23T02:55:27;6.60;;;6.00;;
10341;SDS011;5216;54.602;18.356;2024-02-23T02:57:54;6.60;;;6.00;;
10341;SDS011;5216;54.602;18.356;2024-02-23T03:00:21;6.23;;;5.63;;
10341;SDS011;5216;54.602;18.356;2024-02-23T03:02:47;6.87;;;6.27;;
10341;SDS011;5216;54.602;18.356;2024-02-23T03:05:14;5.93;;;5.43;;
10341;SDS011;5216;54.602;18.356;2024-02-23T03:07:41;5.73;;;5.13;;
10341;SDS011;5216;54.602;18.356;2024-02-23T03:10:08;6.20;;;5.63;;
10341;SDS011;5216;54.602;18.356;2024-02-23T03:12:34;6.37;;;5.43;;
10341;SDS011;5216;54.602;18.356;2024-02-23T03:15:01;5.73;;;5.33;;
10341;SDS011;5216;54.602;18.356;2024-02-23T03:17:32;5.97;;;5.43;;
10341;SDS011;5216;54.602;18.356;2024-02-23T03:19:59;6.17;;;5.60;;
10341;SDS011;5216;54.602;18.356;2024-02-23T03:22:26;5.70;;;5.20;;
10341;SDS011;5216;54.602;18.356;2024-02-23T03:24:53;6.07;;;5.17;;
10341;SDS011;5216;54.602;18.356;2024-02-23T03:27:21;6.00;;;5.50;;
10341;SDS011;5216;54.602;18.356;2024-02-23T03:29:55;5.97;;;5.47;;
10341;SDS011;5216;54.602;18.356;2024-02-23T03:32:22;6.33;;;5.60;;
10341;SDS011;5216;54.602;18.356;2024-02-23T03:34:49;6.30;;;5.20;;
10341;SDS011;5216;54.602;18.356;2024-02-23T03:37:15;5.70;;;5.20;;
10341;SDS011;5216;54.602;18.356;2024-02-23T03:39:42;6.70;;;6.00;;
10341;SDS011;5216;54.602;18.356;2024-02-23T03:42:09;6.53;;;5.83;;
10341;SDS011;5216;54.602;18.356;2024-02-23T03:44:35;8.07;;;6.47;;
10341;SDS011;5216;54.602;18.356;2024-02-23T03:47:02;6.30;;;5.70;;
10341;SDS011;5216;54.602;18.356;2024-02-23T03:49:29;8.03;;;6.20;;
10341;SDS011;5216;54.602;18.356;2024-02-23T03:51:55;6.50;;;5.90;;
10341;SDS011;5216;54.602;18.356;2024-02-23T03:54:22;6.07;;;5.47;;
10341;SDS011;5216;54.602;18.356;2024-02-23T03:56:49;7.10;;;5.67;;
10341;SDS011;5216;54.602;18.356;2024-02-23T03:59:15;6.00;;;5.40;;
10341;SDS011;5216;54.602;18.356;2024-02-23T04:01:42;6.33;;;5.70;;
10341;SDS011;5216;54.602;18.356;2024-02-23T04:04:10;6.30;;;5.70;;
10341;SDS011;5216;54.602;18.356;2024-02-23T04:06:37;5.90;;;5.30;;
10341;SDS011;5216;54.602;18.356;2024-02-23T04:09:04;5.80;;;5.20;;
10341;SDS011;5216;54.602;18.356;2024-02-23T04:11:32;5.53;;;5.03;;
10341;SDS011;5216;54.602;18.356;2024-02-23T04:13:59;5.73;;;5.20;;
10341;SDS011;5216;54.602;18.356;2024-02-23T04:16:27;4.83;;;4.40;;
10341;SDS011;5216;54.602;18.356;2024-02-23T04:18:54;5.63;;;5.13;;
10341;SDS011;5216;54.602;18.356;2024-02-23T04:21:23;5.50;;;5.00;;
10341;SDS011;5216;54.602;18.356;2024-02-23T04:23:50;5.97;;;5.37;;
10341;SDS011;5216;54.602;18.356;2024-02-23T04:26:17;5.40;;;4.90;;
10341;SDS011;5216;54.602;18.356;2024-02-23T04:28:44;5.20;;;4.80;;
10341;SDS011;5216;54.602;18.356;2024-02-23T04:31:11;5.17;;;4.77;;
10341;SDS011;5216;54.602;18.356;2024-02-23T04:33:38;4.90;;;4.50;;
10341;SDS011;5216;54.602;18.356;2024-02-23T04:36:05;5.17;;;4.77;;
10341;SDS011;5216;54.602;18.356;2024-02-23T04:38:33;5.03;;;4.63;;
10341;SDS011;5216;54.602;18.356;2024-02-23T04:41:03;5.03;;;4.57;;
10341;SDS011;5216;54.602;18.356;2024-02-23T04:43:31;4.67;;;4.27;;
10341;SDS011;5216;54.602;18.356;2024-02-23T04:45:58;4.93;;;4.50;;
10341;SDS011;5216;54.602;18.356;2024-02-23T04:48:24;4.80;;;4.37;;
10341;SDS011;5216;54.602;18.356;2024-02-23T04:50:51;4.80;;;4.40;;
10341;SDS011;5216;54.602;18.356;2024-02-23T04:53:18;4.87;;;4.37;;
10341;SDS011;5216;54.602;18.356;2024-02-23T04:55:45;6.23;;;4.30;;
10341;SDS011;5216;54.602;18.356;2024-02-23T04:58:12;4.70;;;4.30;;
10341;SDS011;5216;54.602;18.356;2024-02-23T05:00:39;4.60;;;4.20;;
10341;SDS011;5216;54.602;18.356;2024-02-23T05:03:06;4.83;;;4.43;;
10341;SDS011;5216;54.602;18.356;2024-02-23T05:05:37;4.60;;;4.20;;
10341;SDS011;5216;54.602;18.356;2024-02-23T05:08:04;4.33;;;3.93;;
10341;SDS011;5216;54.602;18.356;2024-02-23T05:10:31;5.00;;;4.50;;
10341;SDS011;5216;54.602;18.356;2024-02-23T05:12:58;4.47;;;4.07;;
10341;SDS011;5216;54.602;18.356;2024-02-23T05:15:25;4.63;;;4.20;;
10341;SDS011;5216;54.602;18.356;2024-02-23T05:17:51;4.93;;;4.43;;
10341;SDS011;5216;54.602;18.356;2024-02-23T05:20:18;4.87;;;4.17;;
10341;SDS011;5216;54.602;18.356;2024-02-23T05:22:45;4.63;;;4.23;;
10341;SDS011;5216;54.602;18.356;2024-02-23T05:25:12;4.67;;;4.07;;
10341;SDS011;5216;54.602;18.356;2024-02-23T05:27:38;4.47;;;4.07;;
10341;SDS011;5216;54.602;18.356;2024-02-23T05:30:05;4.83;;;4.27;;
10341;SDS011;5216;54.602;18.356;2024-02-23T05:32:33;4.20;;;3.80;;
10341;SDS011;5216;54.602;18.356;2024-02-23T05:35:00;4.90;;;4.07;;
10341;SDS011;5216;54.602;18.356;2024-02-23T05:37:27;4.33;;;3.97;;
10341;SDS011;5216;54.602;18.356;2024-02-23T05:39:53;4.80;;;4.30;;
10341;SDS011;5216;54.602;18.356;2024-02-23T05:42:20;4.27;;;3.77;;
10341;SDS011;5216;54.602;18.356;2024-02-23T05:44:47;3.93;;;3.63;;
10341;SDS011;5216;54.602;18.356;2024-02-23T05:47:15;4.37;;;3.73;;
10341;SDS011;5216;54.602;18.356;2024-02-23T05:49:42;4.10;;;3.80;;
10341;SDS011;5216;54.602;18.356;2024-02-23T05:52:08;3.87;;;3.47;;
10341;SDS011;5216;54.602;18.356;2024-02-23T05:54:35;4.03;;;3.43;;
10341;SDS011;5216;54.602;18.356;2024-02-23T05:57:02;3.60;;;3.30;;
10341;SDS011;5216;54.602;18.356;2024-02-23T05:59:29;3.70;;;3.40;;
10341;SDS011;5216;54.602;18.356;2024-02-23T06:01:56;3.60;;;3.30;;
10341;SDS011;5216;54.602;18.356;2024-02-23T06:04:24;4.27;;;3.23;;
10341;SDS011;5216;54.602;18.356;2024-02-23T06:06:51;3.93;;;3.60;;
10341;SDS011;5216;54.602;18.356;2024-02-23T06:09:18;4.07;;;3.77;;
10341;SDS011;5216;54.602;18.356;2024-02-23T06:11:45;3.63;;;3.30;;
10341;SDS011;5216;54.602;18.356;2024-02-23T06:14:13;3.60;;;3.30;;
10341;SDS011;5216;54.602;18.356;2024-02-23T06:16:40;3.47;;;3.10;;
10341;SDS011;5216;54.602;18.356;2024-02-23T06:19:07;3.30;;;3.00;;
10341;SDS011;5216;54.602;18.356;2024-02-23T06:21:34;3.80;;;3.30;;
10341;SDS011;5216;54.602;18.356;2024-02-23T06:24:00;3.50;;;3.20;;
10341;SDS011;5216;54.602;18.356;2024-02-23T06:26:27;3.40;;;3.10;;
10341;SDS011;5216;54.602;18.356;2024-02-23T06:28:55;3.70;;;3.30;;
10341;SDS011;5216;54.602;18.356;2024-02-23T06:31:21;3.20;;;2.90;;
10341;SDS011;5216;54.602;18.356;2024-02-23T06:33:48;2.93;;;2.73;;
10341;SDS011;5216;54.602;18.356;2024-02-23T06:36:18;3.07;;;2.77;;
10341;SDS011;5216;54.602;18.356;2024-02-23T06:38:45;3.40;;;3.00;;
10341;SDS011;5216;54.602;18.356;2024-02-23T06:41:12;3.20;;;2.90;;
10341;SDS011;5216;54.602;18.356;2024-02-23T06:43:38;2.90;;;2.70;;
10341;SDS011;5216;54.602;18.356;2024-02-23T06:46:08;3.60;;;2.67;;
10341;SDS011;5216;54.602;18.356;2024-02-23T06:48:36;3.63;;;3.00;;
10341;SDS011;5216;54.602;18.356;2024-02-23T06:51:04;4.27;;;2.60;;
10341;SDS011;5216;54.602;18.356;2024-02-23T06:53:31;3.10;;;2.77;;
10341;SDS011;5216;54.602;18.356;2024-02-23T06:55:58;2.70;;;2.50;;
10341;SDS011;5216;54.602;18.356;2024-02-23T06:58:26;3.03;;;2.77;;
10341;SDS011;5216;54.602;18.356;2024-02-23T07:00:53;3.77;;;3.40;;
10341;SDS011;5216;54.602;18.356;2024-02-23T07:03:20;3.20;;;2.90;;
10341;SDS011;5216;54.602;18.356;2024-02-23T07:05:47;4.10;;;3.70;;
10341;SDS011;5216;54.602;18.356;2024-02-23T07:08:14;3.80;;;3.43;;
10341;SDS011;5216;54.602;18.356;2024-02-23T07:10:41;4.70;;;4.30;;
10341;SDS011;5216;54.602;18.356;2024-02-23T07:13:08;3.70;;;2.93;;
10341;SDS011;5216;54.602;18.356;2024-02-23T07:15:35;5.03;;;4.53;;
10341;SDS011;5216;54.602;18.356;2024-02-23T07:18:02;8.87;;;6.40;;
10341;SDS011;5216;54.602;18.356;2024-02-23T07:20:30;4.83;;;4.33;;
10341;SDS011;5216;54.602;18.356;2024-02-23T07:22:56;2.57;;;2.37;;
10341;SDS011;5216;54.602;18.356;2024-02-23T07:25:23;5.10;;;4.60;;
10341;SDS011;5216;54.602;18.356;2024-02-23T07:27:50;3.57;;;2.73;;
10341;SDS011;5216;54.602;18.356;2024-02-23T07:30:17;2.80;;;2.50;;
10341;SDS011;5216;54.602;18.356;2024-02-23T07:32:44;4.67;;;4.27;;
10341;SDS011;5216;54.602;18.356;2024-02-23T07:35:18;4.00;;;2.60;;
10341;SDS011;5216;54.602;18.356;2024-02-23T07:37:46;2.60;;;2.40;;
10341;SDS011;5216;54.602;18.356;2024-02-23T07:40:12;3.53;;;3.23;;
10341;SDS011;5216;54.602;18.356;2024-02-23T07:42:43;3.47;;;2.70;;
10341;SDS011;5216;54.602;18.356;2024-02-23T07:45:10;3.30;;;2.77;;
10341;SDS011;5216;54.602;18.356;2024-02-23T07:47:37;3.50;;;2.40;;
10341;SDS011;5216;54.602;18.356;2024-02-23T07:50:04;4.60;;;2.90;;
10341;SDS011;5216;54.602;18.356;2024-02-23T07:52:31;4.27;;;3.37;;
10341;SDS011;5216;54.602;18.356;2024-02-23T07:54:58;2.93;;;2.63;;
10341;SDS011;5216;54.602;18.356;2024-02-23T07:57:26;2.93;;;2.43;;
10341;SDS011;5216;54.602;18.356;2024-02-23T07:59:53;3.30;;;3.00;;
10341;SDS011;5216;54.602;18.356;2024-02-23T08:02:20;3.23;;;2.60;;
10341;SDS011;5216;54.602;18.356;2024-02-23T08:04:47;3.30;;;2.43;;
10341;SDS011;5216;54.602;18.356;2024-02-23T08:07:14;4.43;;;2.67;;
10341;SDS011;5216;54.602;18.356;2024-02-23T08:09:41;2.93;;;1.67;;
10341;SDS011;5216;54.602;18.356;2024-02-23T08:12:08;3.80;;;1.70;;
10341;SDS011;5216;54.602;18.356;2024-02-23T08:14:36;2.10;;;1.43;;
10341;SDS011;5216;54.602;18.356;2024-02-23T08:17:03;1.80;;;1.20;;
10341;SDS011;5216;54.602;18.356;2024-02-23T08:19:29;2.63;;;1.70;;
10341;SDS011;5216;54.602;18.356;2024-02-23T08:21:56;2.30;;;1.30;;
10341;SDS011;5216;54.602;18.356;2024-02-23T08:24:23;2.37;;;1.20;;
10341;SDS011;5216;54.602;18.356;2024-02-23T08:26:53;1.47;;;1.20;;
10341;SDS011;5216;54.602;18.356;2024-02-23T08:29:20;3.23;;;1.40;;
10341;SDS011;5216;54.602;18.356;2024-02-23T08:31:47;2.00;;;1.10;;
10341;SDS011;5216;54.602;18.356;2024-02-23T08:34:14;2.47;;;1.50;;
10341;SDS011;5216;54.602;18.356;2024-02-23T08:36:44;2.63;;;1.43;;
10341;SDS011;5216;54.602;18.356;2024-02-23T08:39:11;1.93;;;1.33;;
10341;SDS011;5216;54.602;18.356;2024-02-23T08:41:37;3.47;;;2.50;;
10341;SDS011;5216;54.602;18.356;2024-02-23T08:44:05;2.00;;;1.10;;
10341;SDS011;5216;54.602;18.356;2024-02-23T08:46:32;3.33;;;2.40;;
10341;SDS011;5216;54.602;18.356;2024-02-23T08:48:59;2.87;;;2.57;;
10341;SDS011;5216;54.602;18.356;2024-02-23T08:51:26;2.83;;;2.10;;
10341;SDS011;5216;54.602;18.356;2024-02-23T08:53:52;3.63;;;2.00;;
10341;SDS011;5216;54.602;18.356;2024-02-23T08:56:21;5.13;;;4.23;;
10341;SDS011;5216;54.602;18.356;2024-02-23T08:58:47;26.53;;;18.90;;
10341;SDS011;5216;54.602;18.356;2024-02-23T09:01:15;15.73;;;14.03;;
10341;SDS011;5216;54.602;18.356;2024-02-23T09:03:41;5.20;;;3.70;;
10341;SDS011;5216;54.602;18.356;2024-02-23T09:06:08;6.17;;;5.03;;
10341;SDS011;5216;54.602;18.356;2024-02-23T09:08:35;3.93;;;3.00;;
10341;SDS011;5216;54.602;18.356;2024-02-23T09:11:02;6.00;;;4.33;;
10341;SDS011;5216;54.602;18.356;2024-02-23T09:13:29;12.47;;;10.10;;
10341;SDS011;5216;54.602;18.356;2024-02-23T09:15:57;8.53;;;7.43;;
10341;SDS011;5216;54.602;18.356;2024-02-23T09:18:23;7.03;;;6.00;;
10341;SDS011;5216;54.602;18.356;2024-02-23T09:20:53;7.90;;;6.07;;
10341;SDS011;5216;54.602;18.356;2024-02-23T09:23:19;4.03;;;2.60;;
10341;SDS011;5216;54.602;18.356;2024-02-23T09:25:46;2.90;;;1.90;;
10341;SDS011;5216;54.602;18.356;2024-02-23T09:28:13;3.33;;;1.50;;
10341;SDS011;5216;54.602;18.356;2024-02-23T09:30:40;3.30;;;1.97;;
10341;SDS011;5216;54.602;18.356;2024-02-23T09:33:06;6.43;;;3.77;;
10341;SDS011;5216;54.602;18.356;2024-02-23T09:35:35;3.83;;;2.20;;
10341;SDS011;5216;54.602;18.356;2024-02-23T09:38:02;4.60;;;1.90;;
10341;SDS011;5216;54.602;18.356;2024-02-23T09:40:29;3.00;;;1.60;;
10341;SDS011;5216;54.602;18.356;2024-02-23T09:42:56;3.17;;;1.40;;
10341;SDS011;5216;54.602;18.356;2024-02-23T09:45:24;1.57;;;0.90;;
10341;SDS011;5216;54.602;18.356;2024-02-23T09:47:56;2.50;;;1.40;;
10341;SDS011;5216;54.602;18.356;2024-02-23T09:50:24;3.03;;;2.40;;
10341;SDS011;5216;54.602;18.356;2024-02-23T09:52:51;2.80;;;2.30;;
10341;SDS011;5216;54.602;18.356;2024-02-23T09:55:18;1.70;;;1.10;;
10341;SDS011;5216;54.602;18.356;2024-02-23T09:57:47;2.07;;;1.40;;
10341;SDS011;5216;54.602;18.356;2024-02-23T10:00:15;1.73;;;1.30;;
10341;SDS011;5216;54.602;18.356;2024-02-23T10:02:44;1.57;;;1.10;;
10341;SDS011;5216;54.602;18.356;2024-02-23T10:05:11;2.67;;;1.40;;
10341;SDS011;5216;54.602;18.356;2024-02-23T10:07:39;2.73;;;2.00;;
10341;SDS011;5216;54.602;18.356;2024-02-23T10:10:07;4.50;;;3.43;;
10341;SDS011;5216;54.602;18.356;2024-02-23T10:12:35;2.23;;;1.73;;
10341;SDS011;5216;54.602;18.356;2024-02-23T10:15:02;3.03;;;1.60;;
10341;SDS011;5216;54.602;18.356;2024-02-23T10:17:32;1.47;;;1.00;;
10341;SDS011;5216;54.602;18.356;2024-02-23T10:20:02;4.13;;;2.80;;
10341;SDS011;5216;54.602;18.356;2024-02-23T10:22:32;3.40;;;2.87;;
10341;SDS011;5216;54.602;18.356;2024-02-23T10:24:59;2.23;;;1.30;;
10341;SDS011;5216;54.602;18.356;2024-02-23T10:27:26;1.77;;;1.10;;
10341;SDS011;5216;54.602;18.356;2024-02-23T10:29:54;2.47;;;1.30;;
10341;SDS011;5216;54.602;18.356;2024-02-23T10:32:21;1.70;;;1.10;;
10341;SDS011;5216;54.602;18.356;2024-02-23T10:34:49;2.30;;;1.00;;
10341;SDS011;5216;54.602;18.356;2024-02-23T10:37:18;3.33;;;1.23;;
10341;SDS011;5216;54.602;18.356;2024-02-23T10:39:45;2.10;;;0.87;;
10341;SDS011;5216;54.602;18.356;2024-02-23T10:42:12;2.00;;;1.17;;
10341;SDS011;5216;54.602;18.356;2024-02-23T10:44:40;2.87;;;1.20;;
10341;SDS011;5216;54.602;18.356;2024-02-23T10:47:07;2.60;;;1.23;;
10341;SDS011;5216;54.602;18.356;2024-02-23T10:49:35;2.00;;;1.30;;
10341;SDS011;5216;54.602;18.356;2024-02-23T10:52:03;0.87;;;0.80;;
10341;SDS011;5216;54.602;18.356;2024-02-23T10:54:31;2.93;;;1.03;;
10341;SDS011;5216;54.602;18.356;2024-02-23T10:56:59;3.80;;;2.53;;
10341;SDS011;5216;54.602;18.356;2024-02-23T10:59:26;2.73;;;2.03;;
10341;SDS011;5216;54.602;18.356;2024-02-23T11:01:53;8.17;;;7.37;;
10341;SDS011;5216;54.602;18.356;2024-02-23T11:04:24;3.90;;;2.97;;
10341;SDS011;5216;54.602;18.356;2024-02-23T11:06:53;4.63;;;3.20;;
10341;SDS011;5216;54.602;18.356;2024-02-23T11:09:21;4.67;;;3.17;;
10341;SDS011;5216;54.602;18.356;2024-02-23T11:11:56;4.80;;;4.10;;
10341;SDS011;5216;54.602;18.356;2024-02-23T11:14:29;2.20;;;1.20;;
10341;SDS011;5216;54.602;18.356;2024-02-23T11:17:02;1.50;;;1.07;;
10341;SDS011;5216;54.602;18.356;2024-02-23T11:19:36;2.47;;;1.90;;
10341;SDS011;5216;54.602;18.356;2024-02-23T11:22:09;3.93;;;3.07;;
10341;SDS011;5216;54.602;18.356;2024-02-23T11:24:48;3.67;;;2.80;;
10341;SDS011;5216;54.602;18.356;2024-02-23T11:27:20;2.07;;;1.30;;
10341;SDS011;5216;54.602;18.356;2024-02-23T11:29:47;2.63;;;1.53;;
10341;SDS011;5216;54.602;18.356;2024-02-23T11:32:17;1.80;;;1.60;;
10341;SDS011;5216;54.602;18.356;2024-02-23T11:34:56;2.30;;;2.10;;
10341;SDS011;5216;54.602;18.356;2024-02-23T11:37:23;2.20;;;2.00;;
10341;SDS011;5216;54.602;18.356;2024-02-23T11:39:54;3.37;;;2.83;;
10341;SDS011;5216;54.602;18.356;2024-02-23T11:42:23;4.33;;;2.53;;
10341;SDS011;5216;54.602;18.356;2024-02-23T11:44:50;3.33;;;2.97;;
10341;SDS011;5216;54.602;18.356;2024-02-23T11:47:20;2.67;;;2.23;;
10341;SDS011;5216;54.602;18.356;2024-02-23T11:49:46;4.73;;;4.33;;
10341;SDS011;5216;54.602;18.356;2024-02-23T11:52:13;3.70;;;3.30;;
10341;SDS011;5216;54.602;18.356;2024-02-23T11:54:40;3.97;;;3.53;;
10341;SDS011;5216;54.602;18.356;2024-02-23T11:57:07;10.53;;;8.70;;
10341;SDS011;5216;54.602;18.356;2024-02-23T11:59:34;2.43;;;2.23;;
10341;SDS011;5216;54.602;18.356;2024-02-23T12:02:01;23.67;;;17.70;;
10341;SDS011;5216;54.602;18.356;2024-02-23T12:04:33;16.70;;;12.10;;
10341;SDS011;5216;54.602;18.356;2024-02-23T12:07:01;13.73;;;11.20;;
10341;SDS011;5216;54.602;18.356;2024-02-23T12:09:28;4.57;;;4.07;;
10341;SDS011;5216;54.602;18.356;2024-02-23T12:11:54;3.70;;;2.57;;
10341;SDS011;5216;54.602;18.356;2024-02-23T12:14:21;4.13;;;3.50;;
10341;SDS011;5216;54.602;18.356;2024-02-23T12:16:48;4.40;;;3.20;;
10341;SDS011;5216;54.602;18.356;2024-02-23T12:19:15;4.50;;;4.10;;
10341;SDS011;5216;54.602;18.356;2024-02-23T12:21:44;3.20;;;2.30;;
10341;SDS011;5216;54.602;18.356;2024-02-23T12:24:12;5.67;;;2.10;;
10341;SDS011;5216;54.602;18.356;2024-02-23T12:26:39;4.93;;;2.90;;
10341;SDS011;5216;54.602;18.356;2024-02-23T12:29:24;4.53;;;4.07;;
10341;SDS011;5216;54.602;18.356;2024-02-23T12:31:51;3.63;;;2.73;;
10341;SDS011;5216;54.602;18.356;2024-02-23T12:34:28;3.57;;;2.20;;
10341;SDS011;5216;54.602;18.356;2024-02-23T12:36:55;2.17;;;1.30;;
10341;SDS011;5216;54.602;18.356;2024-02-23T12:39:22;1.97;;;1.30;;
10341;SDS011;5216;54.602;18.356;2024-02-23T12:41:48;3.90;;;2.30;;
10341;SDS011;5216;54.602;18.356;2024-02-23T12:44:17;2.53;;;2.20;;
10341;SDS011;5216;54.602;18.356;2024-02-23T12:46:43;2.97;;;1.87;;
10341;SDS011;5216;54.602;18.356;2024-02-23T12:49:10;5.13;;;4.37;;
10341;SDS011;5216;54.602;18.356;2024-02-23T12:51:37;3.03;;;2.60;;
10341;SDS011;5216;54.602;18.356;2024-02-23T12:54:03;2.37;;;1.50;;
10341;SDS011;5216;54.602;18.356;2024-02-23T12:56:31;3.47;;;1.40;;
10341;SDS011;5216;54.602;18.356;2024-02-23T12:58:58;1.80;;;1.20;;
10341;SDS011;5216;54.602;18.356;2024-02-23T13:01:24;1.83;;;1.63;;
10341;SDS011;5216;54.602;18.356;2024-02-23T13:03:51;6.17;;;4.40;;
10341;SDS011;5216;54.602;18.356;2024-02-23T13:06:18;9.80;;;8.20;;
10341;SDS011;5216;54.602;18.356;2024-02-23T13:08:45;13.07;;;11.87;;
10341;SDS011;5216;54.602;18.356;2024-02-23T13:11:13;3.73;;;3.33;;
10341;SDS011;5216;54.602;18.356;2024-02-23T13:13:40;2.47;;;2.27;;
10341;SDS011;5216;54.602;18.356;2024-02-23T13:16:10;2.10;;;1.80;;
10341;SDS011;5216;54.602;18.356;2024-02-23T13:18:36;1.67;;;1.50;;
10341;SDS011;5216;54.602;18.356;2024-02-23T13:21:03;1.80;;;1.40;;
10341;SDS011;5216;54.602;18.356;2024-02-23T13:23:30;2.30;;;1.50;;
10341;SDS011;5216;54.602;18.356;2024-02-23T13:25:57;2.40;;;1.93;;
10341;SDS011;5216;54.602;18.356;2024-02-23T13:28:24;2.57;;;1.57;;
10341;SDS011;5216;54.602;18.356;2024-02-23T13:30:51;1.60;;;1.40;;
10341;SDS011;5216;54.602;18.356;2024-02-23T13:33:18;2.57;;;1.20;;
10341;SDS011;5216;54.602;18.356;2024-02-23T13:35:46;2.50;;;2.03;;
10341;SDS011;5216;54.602;18.356;2024-02-23T13:38:13;3.80;;;2.10;;
10341;SDS011;5216;54.602;18.356;2024-02-23T13:40:40;2.13;;;1.90;;
10341;SDS011;5216;54.602;18.356;2024-02-23T13:43:07;5.20;;;3.93;;
10341;SDS011;5216;54.602;18.356;2024-02-23T13:45:47;4.23;;;2.07;;
10341;SDS011;5216;54.602;18.356;2024-02-23T13:48:18;9.83;;;7.67;;
10341;SDS011;5216;54.602;18.356;2024-02-23T13:50:46;3.10;;;2.33;;
10341;SDS011;5216;54.602;18.356;2024-02-23T13:53:13;7.97;;;3.70;;
10341;SDS011;5216;54.602;18.356;2024-02-23T13:55:40;5.33;;;2.90;;
10341;SDS011;5216;54.602;18.356;2024-02-23T13:58:10;8.13;;;5.73;;
10341;SDS011;5216;54.602;18.356;2024-02-23T14:00:37;3.73;;;2.50;;
10341;SDS011;5216;54.602;18.356;2024-02-23T14:03:04;3.50;;;2.63;;
10341;SDS011;5216;54.602;18.356;2024-02-23T14:05:31;3.23;;;1.80;;
10341;SDS011;5216;54.602;18.356;2024-02-23T14:07:57;2.60;;;1.87;;
10341;SDS011;5216;54.602;18.356;2024-02-23T14:10:24;2.80;;;1.60;;
10341;SDS011;5216;54.602;18.356;2024-02-23T14:12:51;2.07;;;1.50;;
10341;SDS011;5216;54.602;18.356;2024-02-23T14:15:18;2.13;;;1.60;;
10341;SDS011;5216;54.602;18.356;2024-02-23T14:17:44;2.07;;;1.50;;
10341;SDS011;5216;54.602;18.356;2024-02-23T14:20:11;2.30;;;1.70;;
10341;SDS011;5216;54.602;18.356;2024-02-23T14:22:39;2.40;;;1.90;;
10341;SDS011;5216;54.602;18.356;2024-02-23T14:25:06;2.30;;;1.70;;
10341;SDS011;5216;54.602;18.356;2024-02-23T14:27:34;3.33;;;2.03;;
10341;SDS011;5216;54.602;18.356;2024-02-23T14:30:00;4.17;;;3.00;;
10341;SDS011;5216;54.602;18.356;2024-02-23T14:32:27;6.87;;;5.33;;
10341;SDS011;5216;54.602;18.356;2024-02-23T14:34:55;8.13;;;6.37;;
10341;SDS011;5216;54.602;18.356;2024-02-23T14:37:24;5.70;;;4.90;;
10341;SDS011;5216;54.602;18.356;2024-02-23T14:39:50;6.03;;;5.43;;
10341;SDS011;5216;54.602;18.356;2024-02-23T14:42:18;7.67;;;5.63;;
10341;SDS011;5216;54.602;18.356;2024-02-23T14:44:45;6.27;;;4.80;;
10341;SDS011;5216;54.602;18.356;2024-02-23T14:47:12;3.70;;;2.80;;